createdAt,value
2024-01-05T00:01:03.158Z,96826.28
2024-01-05T00:03:30.940Z,96827.06
2024-01-05T00:06:01.111Z,96817.69
2024-01-05T00:08:28.784Z,96812.81
2024-01-05T00:10:56.340Z,96804.38
2024-01-05T00:13:23.961Z,96800.72
2024-01-05T00:15:51.540Z,96797.78
2024-01-05T00:18:19.155Z,96798.63
2024-01-05T00:20:46.863Z,96796.97
2024-01-05T00:23:15.845Z,96801.47
2024-01-05T00:25:43.354Z,96792.28
2024-01-05T00:28:11.097Z,96794.94
2024-01-05T00:30:38.790Z,96789.19
2024-01-05T00:33:07.782Z,96779.16
2024-01-05T00:35:35.409Z,96778.16
2024-01-05T00:38:02.963Z,96777.50
2024-01-05T00:40:31.855Z,96779.25
2024-01-05T00:42:59.257Z,96779.16
2024-01-05T00:45:26.864Z,96776.94
2024-01-05T00:47:54.823Z,96745.22
2024-01-05T00:50:22.608Z,96729.59
2024-01-05T00:52:50.283Z,96739.81
2024-01-05T00:55:17.783Z,96737.41
2024-01-05T00:57:46.689Z,96745.78
2024-01-05T01:00:14.593Z,96749.63
2024-01-05T01:02:42.996Z,96744.38
2024-01-05T01:05:10.917Z,96737.38
2024-01-05T01:07:39.995Z,96745.34
2024-01-05T01:10:08.394Z,96735.38
2024-01-05T01:12:36.142Z,96742.72
2024-01-05T01:15:06.390Z,96738.16
2024-01-05T01:17:34.020Z,96744.53
2024-01-05T01:20:01.945Z,96742.84
2024-01-05T01:22:29.754Z,96709.75
2024-01-05T01:24:57.348Z,96712.06
2024-01-05T01:27:24.924Z,96735.34
2024-01-05T01:29:52.569Z,96730.88
2024-01-05T01:32:21.464Z,96729.44
2024-01-05T01:34:48.943Z,96727.88
2024-01-05T01:37:16.562Z,96724.38
2024-01-05T01:39:45.138Z,96726.78
2024-01-05T01:42:13.067Z,96726.66
2024-01-05T01:44:40.685Z,96722.63
2024-01-05T01:47:08.468Z,96713.69
2024-01-05T01:49:40.515Z,96695.09
2024-01-05T01:52:09.104Z,96696.03
2024-01-05T01:54:37.731Z,96680.00
2024-01-05T01:57:07.609Z,96684.66
2024-01-05T01:59:35.730Z,96682.09
2024-01-05T02:02:03.466Z,96678.63
2024-01-05T02:04:31.761Z,96675.69
2024-01-05T02:07:00.792Z,96669.78
2024-01-05T02:09:28.525Z,96664.72
2024-01-05T02:11:56.216Z,96665.19
2024-01-05T02:14:26.255Z,96671.78
2024-01-05T02:16:53.762Z,96665.28
2024-01-05T02:19:21.443Z,96661.53
2024-01-05T02:21:54.069Z,96657.88
2024-01-05T02:24:23.352Z,96652.88
2024-01-05T02:26:51.129Z,96650.03
2024-01-05T02:29:23.245Z,96644.16
2024-01-05T02:31:52.049Z,96653.09
2024-01-05T02:34:19.872Z,96650.47
2024-01-05T02:36:50.113Z,96654.72
2024-01-05T02:39:17.730Z,96656.56
2024-01-05T02:41:46.708Z,96655.34
2024-01-05T02:44:14.226Z,96659.00
2024-01-05T02:46:41.955Z,96651.03
2024-01-05T02:49:10.911Z,96659.00
2024-01-05T02:51:38.568Z,96667.50
2024-01-05T02:54:06.186Z,96674.09
2024-01-05T02:56:36.958Z,96683.16
2024-01-05T02:59:06.682Z,96680.41
2024-01-05T03:01:34.390Z,96685.84
2024-01-05T03:04:02.898Z,96684.28
2024-01-05T03:06:30.668Z,96687.38
2024-01-05T03:08:58.300Z,96699.16
2024-01-05T03:11:25.857Z,96700.84
2024-01-05T03:13:53.509Z,96682.75
2024-01-05T03:16:22.429Z,96664.16
2024-01-05T03:18:50.081Z,96647.06
2024-01-05T03:21:17.703Z,96654.53
2024-01-05T03:23:45.862Z,96647.38
2024-01-05T03:26:13.429Z,96652.53
2024-01-05T03:28:40.967Z,96638.16
2024-01-05T03:31:13.558Z,96623.72
2024-01-05T03:33:42.856Z,96612.41
2024-01-05T03:36:10.833Z,96601.16
2024-01-05T03:38:38.502Z,96573.88
2024-01-05T03:41:06.044Z,96569.25
2024-01-05T03:43:33.565Z,96546.16
2024-01-05T03:46:01.194Z,96558.38
2024-01-05T03:48:28.945Z,96559.50
2024-01-05T03:50:57.879Z,96542.25
2024-01-05T03:53:25.303Z,96521.56
2024-01-05T03:55:52.757Z,96514.78
2024-01-05T03:58:20.305Z,96522.63
2024-01-05T04:00:48.061Z,96544.78
2024-01-05T04:03:18.137Z,96554.94
2024-01-05T04:05:48.823Z,96556.38
2024-01-05T04:08:20.718Z,96555.16
2024-01-05T04:10:48.340Z,96556.69
2024-01-05T04:13:16.204Z,96557.13
2024-01-05T04:15:44.087Z,96540.19
2024-01-05T04:18:11.791Z,96531.22
2024-01-05T04:20:39.613Z,96537.22
2024-01-05T04:23:07.611Z,96524.22
2024-01-05T04:25:36.617Z,96530.41
2024-01-05T04:28:04.479Z,96548.81
2024-01-05T04:30:32.066Z,96553.50
2024-01-05T04:33:00.030Z,96537.97
2024-01-05T04:35:27.673Z,96538.22
2024-01-05T04:37:55.610Z,96542.00
2024-01-05T04:40:23.282Z,96503.91
2024-01-05T04:42:52.238Z,96498.03
2024-01-05T04:45:19.721Z,96495.41
2024-01-05T04:47:48.258Z,96499.41
2024-01-05T04:50:17.666Z,96497.13
2024-01-05T04:52:45.199Z,96490.44
2024-01-05T04:55:15.979Z,96502.28
2024-01-05T04:57:46.371Z,96500.25
2024-01-05T05:00:16.542Z,96498.47
2024-01-05T05:02:44.654Z,96496.00
2024-01-05T05:05:12.375Z,96503.78
2024-01-05T05:07:40.045Z,96504.50
2024-01-05T05:10:09.890Z,96501.28
2024-01-05T05:12:37.594Z,96494.91
2024-01-05T05:15:06.178Z,96499.41
2024-01-05T05:17:34.167Z,96504.44
2024-01-05T05:20:01.844Z,96494.84
2024-01-05T05:22:29.406Z,96496.31
2024-01-05T05:24:56.948Z,96501.78
2024-01-05T05:27:24.627Z,96500.22
2024-01-05T05:29:52.555Z,96505.53
2024-01-05T05:32:20.131Z,96507.22
2024-01-05T05:34:49.151Z,96513.31
2024-01-05T05:37:16.945Z,96519.78
2024-01-05T05:39:44.589Z,96500.31
2024-01-05T05:42:12.366Z,96511.75
2024-01-05T05:44:39.966Z,96514.91
2024-01-05T05:47:17.731Z,96506.38
2024-01-05T05:49:45.351Z,96510.50
2024-01-05T05:52:14.915Z,96517.84
2024-01-05T05:54:42.499Z,96509.63
2024-01-05T05:57:10.360Z,96528.44
2024-01-05T05:59:37.973Z,96520.59
2024-01-05T06:02:04.873Z,96529.13
2024-01-05T06:04:32.611Z,96521.50
2024-01-05T06:07:00.474Z,96523.31
2024-01-05T06:09:29.425Z,96525.50
2024-01-05T06:11:57.040Z,96519.19
2024-01-05T06:14:27.489Z,96533.00
2024-01-05T06:16:55.090Z,96534.56
2024-01-05T06:19:22.856Z,96519.97
2024-01-05T06:21:50.602Z,96526.69
2024-01-05T06:24:18.207Z,96530.13
2024-01-05T06:26:47.093Z,96538.75
2024-01-05T06:29:14.535Z,96524.78
2024-01-05T06:31:42.296Z,96520.28
2024-01-05T06:34:10.189Z,96520.41
2024-01-05T06:36:40.938Z,96527.94
2024-01-05T06:39:08.990Z,96526.78
2024-01-05T06:41:36.623Z,96526.78
2024-01-05T06:44:05.898Z,96527.16
2024-01-05T06:46:33.871Z,96528.38
2024-01-05T06:49:02.072Z,96518.47
2024-01-05T06:51:31.443Z,96518.19
2024-01-05T06:54:00.018Z,96513.59
2024-01-05T06:56:29.294Z,96501.75
2024-01-05T06:58:57.452Z,96507.44
2024-01-05T07:01:26.381Z,96512.31
2024-01-05T07:03:53.938Z,96517.63
2024-01-05T07:06:21.639Z,96506.50
2024-01-05T07:08:49.214Z,96511.63
2024-01-05T07:11:21.181Z,96509.41
2024-01-05T07:13:48.804Z,96522.03
2024-01-05T07:16:17.605Z,96533.19
2024-01-05T07:18:47.351Z,96538.75
2024-01-05T07:21:18.292Z,96551.03
2024-01-05T07:23:48.895Z,96547.78
2024-01-05T07:26:21.615Z,96557.34
2024-01-05T07:28:49.311Z,96565.66
2024-01-05T07:31:17.068Z,96557.16
2024-01-05T07:33:46.129Z,96544.38
2024-01-05T07:36:13.789Z,96531.91
2024-01-05T07:38:41.331Z,96536.66
2024-01-05T07:41:08.911Z,96535.53
2024-01-05T07:43:36.669Z,96538.94
2024-01-05T07:46:04.435Z,96539.75
2024-01-05T07:48:32.148Z,96540.84
2024-01-05T07:51:04.791Z,96540.78
2024-01-05T07:53:32.322Z,96533.31
2024-01-05T07:56:01.740Z,96540.13
2024-01-05T07:58:29.338Z,96538.47
2024-01-05T08:00:56.956Z,96537.03
2024-01-05T08:03:24.983Z,96529.25
2024-01-05T08:05:52.843Z,96527.56
2024-01-05T08:08:21.812Z,96522.38
2024-01-05T08:10:49.316Z,96527.25
2024-01-05T08:13:16.688Z,96532.16
2024-01-05T08:15:45.528Z,96528.25
2024-01-05T08:18:13.631Z,96532.44
2024-01-05T08:20:41.320Z,96516.00
2024-01-05T08:23:10.993Z,96526.28
2024-01-05T08:25:40.011Z,96526.72
2024-01-05T08:28:11.877Z,96524.94
2024-01-05T08:30:40.585Z,96530.22
2024-01-05T08:33:08.506Z,96533.69
2024-01-05T08:35:38.953Z,96524.69
2024-01-05T08:38:06.808Z,96524.06
2024-01-05T08:40:34.483Z,96507.31
2024-01-05T08:43:03.862Z,96507.41
2024-01-05T08:45:33.736Z,96502.97
2024-01-05T08:48:02.189Z,96502.66
2024-01-05T08:50:29.928Z,96506.56
2024-01-05T08:52:57.493Z,96509.84
2024-01-05T08:55:25.282Z,96521.34
2024-01-05T08:57:56.157Z,96516.22
2024-01-05T09:00:25.158Z,96497.72
2024-01-05T09:02:52.904Z,96505.53
2024-01-05T09:05:20.689Z,96509.53
2024-01-05T09:07:48.762Z,96511.53
2024-01-05T09:10:16.589Z,96505.44
2024-01-05T09:12:44.290Z,96509.13
2024-01-05T09:15:11.917Z,96514.56
2024-01-05T09:17:40.908Z,96517.25
2024-01-05T09:20:09.217Z,96515.31
2024-01-05T09:22:38.482Z,96515.44
2024-01-05T09:25:07.235Z,96503.41
2024-01-05T09:27:34.836Z,96501.50
2024-01-05T09:30:02.527Z,96505.81
2024-01-05T09:32:30.204Z,96496.72
2024-01-05T09:34:59.093Z,96491.63
2024-01-05T09:37:26.503Z,96482.66
2024-01-05T09:39:54.988Z,96480.50
2024-01-05T09:42:23.416Z,96472.28
2024-01-05T09:44:53.048Z,96470.66
2024-01-05T09:47:21.009Z,96466.22
2024-01-05T09:49:53.683Z,96464.22
2024-01-05T09:52:22.983Z,96475.16
2024-01-05T09:54:51.938Z,96474.72
2024-01-05T09:57:19.887Z,96479.88
2024-01-05T09:59:49.124Z,96481.78
2024-01-05T10:02:23.654Z,96478.19
2024-01-05T10:04:51.224Z,96480.03
2024-01-05T10:07:19.459Z,96474.53
2024-01-05T10:09:53.309Z,96477.81
2024-01-05T10:12:20.923Z,96478.88
2024-01-05T10:14:49.040Z,96487.44
2024-01-05T10:17:17.884Z,96490.34
2024-01-05T10:19:45.842Z,96483.81
2024-01-05T10:22:14.625Z,96488.13
2024-01-05T10:24:44.058Z,96480.56
2024-01-05T10:27:14.907Z,96482.38
2024-01-05T10:29:46.318Z,96480.88
2024-01-05T10:32:16.533Z,96500.00
2024-01-05T10:34:45.883Z,96492.84
2024-01-05T10:37:14.373Z,96492.91
2024-01-05T10:39:47.625Z,96503.38
2024-01-05T10:42:28.595Z,96506.38
2024-01-05T10:44:59.019Z,96498.41
2024-01-05T10:47:30.171Z,96500.06
2024-01-05T10:49:58.810Z,96512.13
2024-01-05T10:52:28.377Z,96520.16
2024-01-05T10:54:56.277Z,96519.56
2024-01-05T10:57:24.781Z,96516.69
2024-01-05T10:59:55.264Z,96500.09
2024-01-05T11:02:26.166Z,96512.59
2024-01-05T11:05:03.159Z,96520.78
2024-01-05T11:07:34.897Z,96513.59
2024-01-05T11:10:17.405Z,96510.75
2024-01-05T11:13:03.530Z,96513.81
2024-01-05T11:15:49.110Z,96506.03
2024-01-05T11:21:21.455Z,96506.69
2024-01-05T11:23:50.761Z,96505.47
2024-01-05T11:26:31.204Z,96506.53
2024-01-05T11:28:58.861Z,96497.91
2024-01-05T11:32:00.771Z,96477.66
2024-01-05T11:34:36.537Z,96490.78
2024-01-05T11:37:06.705Z,96483.78
2024-01-05T11:39:46.715Z,96475.19
2024-01-05T11:42:30.967Z,96469.03
2024-01-05T11:45:00.142Z,96468.81
2024-01-05T11:47:47.193Z,96457.53
2024-01-05T11:50:28.284Z,96461.66
2024-01-05T11:53:15.642Z,96453.44
2024-01-05T11:55:50.218Z,96446.47
2024-01-05T11:58:19.593Z,96454.25
2024-01-05T12:00:48.535Z,96448.72
2024-01-05T12:03:19.067Z,96449.13
2024-01-05T12:05:51.218Z,96447.50
2024-01-05T12:08:19.370Z,96447.91
2024-01-05T12:10:46.994Z,96455.06
2024-01-05T12:13:14.616Z,96437.66
2024-01-05T12:15:49.770Z,96441.38
2024-01-05T12:18:33.809Z,96427.59
2024-01-05T12:21:06.974Z,96425.72
2024-01-05T12:23:35.246Z,96421.47
2024-01-05T12:26:04.556Z,96424.09
2024-01-05T12:28:34.560Z,96427.59
2024-01-05T12:31:03.264Z,96426.78
2024-01-05T12:33:34.636Z,96425.31
2024-01-05T12:36:02.303Z,96435.91
2024-01-05T12:38:31.101Z,96429.00
2024-01-05T12:41:06.760Z,96429.03
2024-01-05T12:43:35.993Z,96420.81
2024-01-05T12:46:05.998Z,96423.22
2024-01-05T12:48:35.248Z,96412.63
2024-01-05T12:51:07.447Z,96423.69
2024-01-05T12:53:35.835Z,96423.06
2024-01-05T12:56:11.111Z,96423.06
2024-01-05T12:58:40.586Z,96422.47
2024-01-05T13:01:09.183Z,96427.16
2024-01-05T13:03:38.243Z,96428.16
2024-01-05T13:06:10.207Z,96423.88
2024-01-05T13:08:38.029Z,96427.16
2024-01-05T13:11:07.425Z,96417.56
2024-01-05T13:13:35.004Z,96426.75
2024-01-05T13:16:03.131Z,96436.63
2024-01-05T13:18:30.860Z,96436.81
2024-01-05T13:20:59.953Z,96439.06
2024-01-05T13:23:29.321Z,96440.28
2024-01-05T13:25:56.908Z,96439.84
2024-01-05T13:28:24.522Z,96447.22
2024-01-05T13:30:52.654Z,96437.56
2024-01-05T13:33:20.476Z,96431.88
2024-01-05T13:35:49.851Z,96427.34
2024-01-05T13:38:19.606Z,96434.94
2024-01-05T13:40:47.341Z,96432.91
2024-01-05T13:43:14.960Z,96443.94
2024-01-05T13:45:42.796Z,96433.69
2024-01-05T13:48:10.461Z,96431.59
2024-01-05T13:50:38.019Z,96422.25
2024-01-05T13:53:10.072Z,96408.72
2024-01-05T13:55:39.004Z,96416.22
2024-01-05T13:58:07.318Z,96415.22
2024-01-05T14:00:35.086Z,96417.69
2024-01-05T14:03:03.026Z,96416.69
2024-01-05T14:05:30.937Z,96410.94
2024-01-05T14:07:58.641Z,96417.31
2024-01-05T14:10:26.310Z,96421.44
2024-01-05T14:13:00.227Z,96418.97
2024-01-05T14:15:28.725Z,96429.22
2024-01-05T14:17:56.550Z,96428.63
2024-01-05T14:20:24.105Z,96422.06
2024-01-05T14:22:51.731Z,96424.91
2024-01-05T14:25:19.274Z,96429.63
2024-01-05T14:27:49.427Z,96439.06
2024-01-05T14:30:18.801Z,96432.31
2024-01-05T14:32:46.714Z,96433.34
2024-01-05T14:35:14.361Z,96435.81
2024-01-05T14:37:41.946Z,96441.34
2024-01-05T14:40:13.062Z,96438.66
2024-01-05T14:42:40.739Z,96446.47
2024-01-05T14:45:09.333Z,96453.03
2024-01-05T14:47:40.470Z,96458.16
2024-01-05T14:50:09.616Z,96457.75
2024-01-05T14:52:37.469Z,96468.63
2024-01-05T14:55:05.883Z,96470.25
2024-01-05T14:57:33.551Z,96474.34
2024-01-05T15:00:01.782Z,96474.78
2024-01-05T15:02:29.484Z,96473.13
2024-01-05T15:04:58.543Z,96476.41
2024-01-05T15:07:27.155Z,96473.97
2024-01-05T15:09:54.976Z,96472.72
2024-01-05T15:12:22.837Z,96466.38
2024-01-05T15:14:50.583Z,96471.28
2024-01-05T15:17:18.284Z,96470.69
2024-01-05T15:19:46.090Z,96474.97
2024-01-05T15:22:15.223Z,96472.94
2024-01-05T15:24:46.344Z,96472.72
2024-01-05T15:27:14.508Z,96472.09
2024-01-05T15:29:42.232Z,96474.16
2024-01-05T15:32:09.962Z,96471.91
2024-01-05T15:34:37.927Z,96473.13
2024-01-05T15:37:05.799Z,96476.00
2024-01-05T15:39:34.762Z,96474.78
2024-01-05T15:42:02.404Z,96479.47
2024-01-05T15:44:30.145Z,96478.66
2024-01-05T15:46:57.663Z,96486.88
2024-01-05T15:49:25.825Z,96480.28
2024-01-05T15:51:54.016Z,96472.09
2024-01-05T15:54:21.820Z,96471.69
2024-01-05T15:56:50.848Z,96486.06
2024-01-05T15:59:18.476Z,96481.31
2024-01-05T16:01:49.705Z,96473.31
2024-01-05T16:04:20.094Z,96476.00
2024-01-05T16:06:47.758Z,96477.84
2024-01-05T16:09:15.506Z,96480.69
2024-01-05T16:11:43.487Z,96488.28
2024-01-05T16:14:14.714Z,96481.50
2024-01-05T16:16:42.432Z,96481.28
2024-01-05T16:19:10.894Z,96489.25
2024-01-05T16:21:38.827Z,96483.94
2024-01-05T16:24:10.089Z,96483.09
2024-01-05T16:26:37.922Z,96479.22
2024-01-05T16:29:05.448Z,96485.50
2024-01-05T16:31:34.546Z,96482.88
2024-01-05T16:34:03.440Z,96483.31
2024-01-05T16:36:30.982Z,96481.06
2024-01-05T16:38:58.678Z,96479.84
2024-01-05T16:41:26.346Z,96484.53
2024-01-05T16:43:54.608Z,96488.66
2024-01-05T16:46:22.388Z,96487.84
2024-01-05T16:48:54.088Z,96492.53
2024-01-05T16:51:23.030Z,96488.66
2024-01-05T16:53:51.782Z,96491.72
2024-01-05T16:56:25.561Z,96485.38
2024-01-05T16:58:54.336Z,96480.66
2024-01-05T17:01:22.143Z,96478.59
2024-01-05T17:03:52.026Z,96476.78
2024-01-05T17:06:20.880Z,96474.53
2024-01-05T17:08:48.612Z,96481.06
2024-01-05T17:11:16.318Z,96470.41
2024-01-05T17:13:43.875Z,96464.25
2024-01-05T17:16:12.062Z,96456.88
2024-01-05T17:18:40.063Z,96450.34
2024-01-05T17:21:10.112Z,96456.06
2024-01-05T17:23:38.137Z,96468.97
2024-01-05T17:26:08.765Z,96467.50
2024-01-05T17:28:36.414Z,96458.94
2024-01-05T17:31:04.193Z,96458.94
2024-01-05T17:33:31.827Z,96462.59
2024-01-05T17:35:59.439Z,96464.84
2024-01-05T17:38:28.306Z,96465.50
2024-01-05T17:40:55.761Z,96474.06
2024-01-05T17:43:23.358Z,96468.13
2024-01-05T17:45:50.998Z,96478.34
2024-01-05T17:48:20.061Z,96481.84
2024-01-05T17:50:47.824Z,96476.31
2024-01-05T17:53:15.464Z,96487.16
2024-01-05T17:55:46.512Z,96484.91
2024-01-05T17:58:14.210Z,96484.63
2024-01-05T18:00:41.853Z,96483.47
2024-01-05T18:03:09.706Z,96487.16
2024-01-05T18:05:37.238Z,96493.28
2024-01-05T18:08:05.323Z,96486.50
2024-01-05T18:10:33.505Z,96493.69
2024-01-05T18:13:02.387Z,96493.50
2024-01-05T18:15:29.860Z,96494.31
2024-01-05T18:17:57.566Z,96493.84
2024-01-05T18:20:25.198Z,96491.00
2024-01-05T18:22:52.918Z,96497.97
2024-01-05T18:25:20.495Z,96484.63
2024-01-05T18:27:50.812Z,96494.00
2024-01-05T18:30:20.077Z,96494.84
2024-01-05T18:32:47.733Z,96495.03
2024-01-05T18:35:15.602Z,96500.13
2024-01-05T18:37:43.257Z,96493.63
2024-01-05T18:40:11.322Z,96495.25
2024-01-05T18:42:39.101Z,96492.38
2024-01-05T18:45:08.735Z,96497.69
2024-01-05T18:47:37.781Z,96504.50
2024-01-05T18:50:06.188Z,96515.91
2024-01-05T18:52:33.861Z,96505.28
2024-01-05T18:55:01.664Z,96511.00
2024-01-05T18:57:31.801Z,96510.16
2024-01-05T19:00:01.378Z,96513.22
2024-01-05T19:02:31.474Z,96510.38
2024-01-05T19:05:01.639Z,96511.41
2024-01-05T19:07:29.901Z,96507.91
2024-01-05T19:09:57.583Z,96507.72
2024-01-05T19:12:25.252Z,96512.41
2024-01-05T19:14:52.928Z,96502.41
2024-01-05T19:17:21.886Z,96495.78
2024-01-05T19:19:51.013Z,96493.25
2024-01-05T19:22:21.162Z,96475.31
2024-01-05T19:24:48.034Z,96479.50
2024-01-05T19:27:16.001Z,96486.50
2024-01-05T19:29:43.571Z,96495.72
2024-01-05T19:32:11.086Z,96497.91
2024-01-05T19:34:38.903Z,96493.78
2024-01-05T19:37:06.490Z,96495.03
2024-01-05T19:39:35.428Z,96492.47
2024-01-05T19:42:06.491Z,96478.56
2024-01-05T19:44:34.073Z,96481.44
2024-01-05T19:47:02.149Z,96480.03
2024-01-05T19:49:30.092Z,96498.81
2024-01-05T19:51:57.737Z,96508.00
2024-01-05T19:54:25.846Z,96514.06
2024-01-05T19:56:55.350Z,96520.97
2024-01-05T19:59:26.075Z,96518.69
2024-01-05T20:01:53.903Z,96524.91
2024-01-05T20:04:21.625Z,96527.19
2024-01-05T20:06:50.145Z,96525.34
2024-01-05T20:09:18.461Z,96530.09
2024-01-05T20:11:47.163Z,96527.59
2024-01-05T20:14:16.894Z,96543.38
2024-01-05T20:16:44.537Z,96548.06
2024-01-05T20:19:14.100Z,96538.47
2024-01-05T20:21:41.988Z,96540.28
2024-01-05T20:24:09.870Z,96539.19
2024-01-05T20:26:38.016Z,96522.72
2024-01-05T20:29:06.421Z,96519.59
2024-01-05T20:31:35.708Z,96514.44
2024-01-05T20:34:06.065Z,96518.66
2024-01-05T20:36:36.155Z,96532.63
2024-01-05T20:39:04.009Z,96528.59
2024-01-05T20:41:31.793Z,96527.34
2024-01-05T20:44:03.603Z,96531.50
2024-01-05T20:46:31.334Z,96537.84
2024-01-05T20:49:00.511Z,96531.47
2024-01-05T20:51:28.954Z,96533.13
2024-01-05T20:53:57.508Z,96527.53
2024-01-05T20:56:25.382Z,96511.63
2024-01-05T20:58:53.136Z,96503.44
2024-01-05T21:01:20.844Z,96487.03
2024-01-05T21:03:48.668Z,96500.00
2024-01-05T21:06:17.607Z,96520.41
2024-01-05T21:08:45.180Z,96513.66
2024-01-05T21:11:23.642Z,96521.03
2024-01-05T21:13:51.613Z,96527.34
2024-01-05T21:16:19.666Z,96520.22
2024-01-05T21:18:50.471Z,96527.22
2024-01-05T21:21:21.953Z,96508.47
2024-01-05T21:23:50.121Z,96516.53
2024-01-05T21:26:17.684Z,96522.44
2024-01-05T21:28:45.364Z,96519.63
2024-01-05T21:31:13.191Z,96526.16
2024-01-05T21:33:43.317Z,96524.13
2024-01-05T21:36:12.308Z,96527.78
2024-01-05T21:38:41.263Z,96515.91
2024-01-05T21:41:08.752Z,96522.09
2024-01-05T21:43:36.307Z,96525.69
2024-01-05T21:46:04.341Z,96525.09
2024-01-05T21:48:33.237Z,96512.06
2024-01-05T21:51:01.398Z,96513.88
2024-01-05T21:53:28.960Z,96500.19
2024-01-05T21:55:57.881Z,96507.09
2024-01-05T21:58:25.299Z,96517.13
2024-01-05T22:00:53.070Z,96514.03
2024-01-05T22:03:21.028Z,96519.34
2024-01-05T22:05:48.857Z,96518.91
2024-01-05T22:08:19.124Z,96526.50
2024-01-05T22:10:51.238Z,96527.88
2024-01-05T22:13:20.153Z,96529.28
2024-01-05T22:15:47.615Z,96527.25
2024-01-05T22:18:16.363Z,96526.44
2024-01-05T22:20:44.377Z,96532.53
2024-01-05T22:23:11.992Z,96529.03
2024-01-05T22:25:41.340Z,96529.44
2024-01-05T22:28:11.863Z,96534.13
2024-01-05T22:30:40.927Z,96539.78
2024-01-05T22:33:09.094Z,96538.00
2024-01-05T22:35:37.317Z,96537.41
2024-01-05T22:38:05.414Z,96540.09
2024-01-05T22:40:32.959Z,96540.06
2024-01-05T22:43:02.733Z,96537.44
2024-01-05T22:45:30.402Z,96532.47
2024-01-05T22:47:59.594Z,96527.09
2024-01-05T22:50:27.285Z,96534.88
2024-01-05T22:52:54.885Z,96534.69
2024-01-05T22:55:22.593Z,96538.34
2024-01-05T22:57:50.435Z,96548.19
2024-01-05T23:00:20.247Z,96540.00
2024-01-05T23:02:47.896Z,96537.53
2024-01-05T23:05:16.807Z,96549.25
2024-01-05T23:07:44.296Z,96553.06
2024-01-05T23:10:11.884Z,96552.66
2024-01-05T23:12:39.857Z,96550.63
2024-01-05T23:15:11.567Z,96551.38
2024-01-05T23:17:39.195Z,96548.03
2024-01-05T23:20:13.667Z,96547.19
2024-01-05T23:22:42.729Z,96547.06
2024-01-05T23:25:13.260Z,96551.31
2024-01-05T23:27:40.970Z,96560.03
2024-01-05T23:30:09.816Z,96559.91
2024-01-05T23:32:37.454Z,96549.56
2024-01-05T23:35:05.612Z,96557.34
2024-01-05T23:37:33.370Z,96560.75
2024-01-05T23:40:02.413Z,96559.44
2024-01-05T23:42:30.086Z,96563.53
2024-01-05T23:44:57.830Z,96551.50
2024-01-05T23:47:26.250Z,96554.16
2024-01-05T23:49:55.556Z,96552.91
2024-01-05T23:52:23.357Z,96548.38
2024-01-05T23:54:51.010Z,96544.31
2024-01-05T23:57:19.942Z,96548.16
2024-01-05T23:59:47.413Z,96546.75
